sensor_id;sensor_type;location;lat;lon;timestamp;P1;durP1;ratioP1;P2;durP2;ratioP2
15938;SDS011;8068;51.322;9.450;2023-06-14T00:00:25;4.43;;;3.50;;
15938;SDS011;8068;51.322;9.450;2023-06-14T00:03:10;3.20;;;3.00;;
15938;SDS011;8068;51.322;9.450;2023-06-14T00:05:55;4.13;;;3.00;;
15938;SDS011;8068;51.322;9.450;2023-06-14T00:08:40;8.37;;;2.80;;
15938;SDS011;8068;51.322;9.450;2023-06-14T00:11:24;3.40;;;3.10;;
15938;SDS011;8068;51.322;9.450;2023-06-14T00:14:11;3.50;;;3.23;;
15938;SDS011;8068;51.322;9.450;2023-06-14T00:16:55;4.00;;;2.87;;
15938;SDS011;8068;51.322;9.450;2023-06-14T00:19:42;4.13;;;2.90;;
15938;SDS011;8068;51.322;9.450;2023-06-14T00:22:27;6.00;;;2.70;;
15938;SDS011;8068;51.322;9.450;2023-06-14T00:25:15;6.13;;;2.37;;
15938;SDS011;8068;51.322;9.450;2023-06-14T00:28:13;5.10;;;2.63;;
15938;SDS011;8068;51.322;9.450;2023-06-14T00:30:57;5.60;;;3.23;;
15938;SDS011;8068;51.322;9.450;2023-06-14T00:33:42;4.90;;;2.80;;
15938;SDS011;8068;51.322;9.450;2023-06-14T00:36:26;3.13;;;2.83;;
15938;SDS011;8068;51.322;9.450;2023-06-14T00:39:11;5.10;;;2.80;;
15938;SDS011;8068;51.322;9.450;2023-06-14T00:41:55;4.83;;;3.23;;
15938;SDS011;8068;51.322;9.450;2023-06-14T00:44:40;5.07;;;3.07;;
15938;SDS011;8068;51.322;9.450;2023-06-14T00:47:25;4.07;;;2.80;;
15938;SDS011;8068;51.322;9.450;2023-06-14T00:50:11;3.20;;;2.90;;
15938;SDS011;8068;51.322;9.450;2023-06-14T00:52:57;4.10;;;2.80;;
15938;SDS011;8068;51.322;9.450;2023-06-14T00:55:41;5.37;;;2.83;;
15938;SDS011;8068;51.322;9.450;2023-06-14T00:58:26;3.30;;;3.10;;
15938;SDS011;8068;51.322;9.450;2023-06-14T01:01:10;6.70;;;2.80;;
15938;SDS011;8068;51.322;9.450;2023-06-14T01:03:55;6.60;;;2.60;;
15938;SDS011;8068;51.322;9.450;2023-06-14T01:06:45;4.97;;;2.40;;
15938;SDS011;8068;51.322;9.450;2023-06-14T01:12:53;3.27;;;2.70;;
15938;SDS011;8068;51.322;9.450;2023-06-14T01:15:39;7.83;;;2.70;;
15938;SDS011;8068;51.322;9.450;2023-06-14T01:18:25;3.53;;;2.60;;
15938;SDS011;8068;51.322;9.450;2023-06-14T01:21:20;5.70;;;2.80;;
15938;SDS011;8068;51.322;9.450;2023-06-14T01:24:08;3.40;;;2.50;;
15938;SDS011;8068;51.322;9.450;2023-06-14T01:26:53;3.50;;;2.60;;
15938;SDS011;8068;51.322;9.450;2023-06-14T01:29:40;3.80;;;3.30;;
15938;SDS011;8068;51.322;9.450;2023-06-14T01:32:29;3.37;;;3.07;;
15938;SDS011;8068;51.322;9.450;2023-06-14T01:35:14;6.10;;;2.83;;
15938;SDS011;8068;51.322;9.450;2023-06-14T01:37:59;4.37;;;2.80;;
15938;SDS011;8068;51.322;9.450;2023-06-14T01:40:44;4.00;;;2.60;;
15938;SDS011;8068;51.322;9.450;2023-06-14T01:43:30;3.37;;;3.00;;
15938;SDS011;8068;51.322;9.450;2023-06-14T01:46:15;7.60;;;2.67;;
15938;SDS011;8068;51.322;9.450;2023-06-14T01:49:00;2.77;;;2.57;;
15938;SDS011;8068;51.322;9.450;2023-06-14T01:51:45;2.97;;;2.70;;
15938;SDS011;8068;51.322;9.450;2023-06-14T01:54:29;2.70;;;2.50;;
15938;SDS011;8068;51.322;9.450;2023-06-14T01:57:15;5.90;;;2.50;;
15938;SDS011;8068;51.322;9.450;2023-06-14T01:59:59;3.03;;;2.83;;
15938;SDS011;8068;51.322;9.450;2023-06-14T02:02:44;2.80;;;2.60;;
15938;SDS011;8068;51.322;9.450;2023-06-14T02:05:30;4.40;;;2.90;;
15938;SDS011;8068;51.322;9.450;2023-06-14T02:08:15;4.07;;;2.60;;
15938;SDS011;8068;51.322;9.450;2023-06-14T02:10:59;3.47;;;2.13;;
15938;SDS011;8068;51.322;9.450;2023-06-14T02:13:44;6.23;;;2.93;;
15938;SDS011;8068;51.322;9.450;2023-06-14T02:16:29;2.40;;;2.20;;
15938;SDS011;8068;51.322;9.450;2023-06-14T02:19:17;2.50;;;2.40;;
15938;SDS011;8068;51.322;9.450;2023-06-14T02:22:02;4.40;;;2.53;;
15938;SDS011;8068;51.322;9.450;2023-06-14T02:24:46;5.73;;;2.63;;
15938;SDS011;8068;51.322;9.450;2023-06-14T02:27:31;2.83;;;2.63;;
15938;SDS011;8068;51.322;9.450;2023-06-14T02:30:15;3.07;;;2.23;;
15938;SDS011;8068;51.322;9.450;2023-06-14T02:33:01;2.67;;;2.50;;
15938;SDS011;8068;51.322;9.450;2023-06-14T02:35:46;2.80;;;2.70;;
15938;SDS011;8068;51.322;9.450;2023-06-14T02:38:31;3.60;;;2.90;;
15938;SDS011;8068;51.322;9.450;2023-06-14T02:41:16;6.20;;;2.63;;
15938;SDS011;8068;51.322;9.450;2023-06-14T02:44:01;3.50;;;3.20;;
15938;SDS011;8068;51.322;9.450;2023-06-14T02:46:46;3.20;;;2.90;;
15938;SDS011;8068;51.322;9.450;2023-06-14T02:49:30;2.90;;;2.50;;
15938;SDS011;8068;51.322;9.450;2023-06-14T02:52:15;2.70;;;2.50;;
15938;SDS011;8068;51.322;9.450;2023-06-14T02:54:59;4.17;;;2.10;;
15938;SDS011;8068;51.322;9.450;2023-06-14T02:57:43;3.30;;;2.43;;
15938;SDS011;8068;51.322;9.450;2023-06-14T03:00:28;5.30;;;2.30;;
15938;SDS011;8068;51.322;9.450;2023-06-14T03:03:14;3.17;;;2.20;;
15938;SDS011;8068;51.322;9.450;2023-06-14T03:06:00;2.73;;;2.63;;
15938;SDS011;8068;51.322;9.450;2023-06-14T03:08:49;3.20;;;3.00;;
15938;SDS011;8068;51.322;9.450;2023-06-14T03:11:33;4.33;;;2.80;;
15938;SDS011;8068;51.322;9.450;2023-06-14T03:14:18;3.57;;;2.60;;
15938;SDS011;8068;51.322;9.450;2023-06-14T03:17:03;3.90;;;2.60;;
15938;SDS011;8068;51.322;9.450;2023-06-14T03:19:49;2.60;;;2.37;;
15938;SDS011;8068;51.322;9.450;2023-06-14T03:22:33;2.73;;;2.53;;
15938;SDS011;8068;51.322;9.450;2023-06-14T03:25:18;4.63;;;2.53;;
15938;SDS011;8068;51.322;9.450;2023-06-14T03:28:02;2.47;;;2.27;;
15938;SDS011;8068;51.322;9.450;2023-06-14T03:30:47;6.07;;;2.60;;
15938;SDS011;8068;51.322;9.450;2023-06-14T03:33:31;3.93;;;2.50;;
15938;SDS011;8068;51.322;9.450;2023-06-14T03:36:16;2.97;;;2.77;;
15938;SDS011;8068;51.322;9.450;2023-06-14T03:39:01;3.30;;;2.33;;
15938;SDS011;8068;51.322;9.450;2023-06-14T03:41:46;3.33;;;2.50;;
15938;SDS011;8068;51.322;9.450;2023-06-14T03:44:31;7.03;;;2.77;;
15938;SDS011;8068;51.322;9.450;2023-06-14T03:47:15;4.03;;;2.70;;
15938;SDS011;8068;51.322;9.450;2023-06-14T03:50:01;4.63;;;2.83;;
15938;SDS011;8068;51.322;9.450;2023-06-14T03:52:47;4.63;;;3.03;;
15938;SDS011;8068;51.322;9.450;2023-06-14T03:55:33;4.50;;;2.80;;
15938;SDS011;8068;51.322;9.450;2023-06-14T03:58:20;5.17;;;2.43;;
15938;SDS011;8068;51.322;9.450;2023-06-14T04:01:05;2.90;;;2.70;;
15938;SDS011;8068;51.322;9.450;2023-06-14T04:03:50;4.27;;;2.40;;
15938;SDS011;8068;51.322;9.450;2023-06-14T04:06:35;7.70;;;2.50;;
15938;SDS011;8068;51.322;9.450;2023-06-14T04:09:19;4.90;;;2.70;;
15938;SDS011;8068;51.322;9.450;2023-06-14T04:12:04;6.13;;;3.20;;
15938;SDS011;8068;51.322;9.450;2023-06-14T04:14:49;6.43;;;2.57;;
15938;SDS011;8068;51.322;9.450;2023-06-14T04:17:34;4.23;;;3.83;;
15938;SDS011;8068;51.322;9.450;2023-06-14T04:20:19;3.67;;;2.50;;
15938;SDS011;8068;51.322;9.450;2023-06-14T04:23:13;8.40;;;2.50;;
15938;SDS011;8068;51.322;9.450;2023-06-14T04:25:58;7.10;;;2.60;;
15938;SDS011;8068;51.322;9.450;2023-06-14T04:28:46;3.43;;;2.23;;
15938;SDS011;8068;51.322;9.450;2023-06-14T04:31:31;3.10;;;2.50;;
15938;SDS011;8068;51.322;9.450;2023-06-14T04:34:18;3.40;;;2.30;;
15938;SDS011;8068;51.322;9.450;2023-06-14T04:37:03;2.50;;;2.30;;
15938;SDS011;8068;51.322;9.450;2023-06-14T04:39:48;5.03;;;2.50;;
15938;SDS011;8068;51.322;9.450;2023-06-14T04:42:34;3.00;;;2.00;;
15938;SDS011;8068;51.322;9.450;2023-06-14T04:45:21;4.03;;;2.20;;
15938;SDS011;8068;51.322;9.450;2023-06-14T04:48:07;3.70;;;2.30;;
15938;SDS011;8068;51.322;9.450;2023-06-14T04:50:52;3.30;;;2.43;;
15938;SDS011;8068;51.322;9.450;2023-06-14T04:53:37;2.37;;;2.17;;
15938;SDS011;8068;51.322;9.450;2023-06-14T04:56:21;2.73;;;2.47;;
15938;SDS011;8068;51.322;9.450;2023-06-14T04:59:06;3.87;;;2.10;;
15938;SDS011;8068;51.322;9.450;2023-06-14T05:01:50;2.13;;;2.03;;
15938;SDS011;8068;51.322;9.450;2023-06-14T05:04:35;3.50;;;2.50;;
15938;SDS011;8068;51.322;9.450;2023-06-14T05:07:24;4.90;;;2.20;;
15938;SDS011;8068;51.322;9.450;2023-06-14T05:10:09;4.43;;;2.23;;
15938;SDS011;8068;51.322;9.450;2023-06-14T05:12:53;5.07;;;2.60;;
15938;SDS011;8068;51.322;9.450;2023-06-14T05:15:39;3.50;;;2.30;;
15938;SDS011;8068;51.322;9.450;2023-06-14T05:18:23;3.70;;;2.20;;
15938;SDS011;8068;51.322;9.450;2023-06-14T05:21:09;3.90;;;2.23;;
15938;SDS011;8068;51.322;9.450;2023-06-14T05:23:53;2.77;;;2.50;;
15938;SDS011;8068;51.322;9.450;2023-06-14T05:26:38;3.43;;;2.50;;
15938;SDS011;8068;51.322;9.450;2023-06-14T05:29:23;1.90;;;1.80;;
15938;SDS011;8068;51.322;9.450;2023-06-14T05:32:07;3.10;;;2.10;;
15938;SDS011;8068;51.322;9.450;2023-06-14T05:34:52;2.43;;;1.87;;
15938;SDS011;8068;51.322;9.450;2023-06-14T05:37:36;1.97;;;1.70;;
15938;SDS011;8068;51.322;9.450;2023-06-14T05:40:21;9.40;;;1.90;;
15938;SDS011;8068;51.322;9.450;2023-06-14T05:43:05;3.17;;;2.83;;
15938;SDS011;8068;51.322;9.450;2023-06-14T05:45:50;4.13;;;2.37;;
15938;SDS011;8068;51.322;9.450;2023-06-14T05:48:34;8.10;;;2.30;;
15938;SDS011;8068;51.322;9.450;2023-06-14T05:51:19;2.47;;;2.37;;
15938;SDS011;8068;51.322;9.450;2023-06-14T05:54:03;8.93;;;2.60;;
15938;SDS011;8068;51.322;9.450;2023-06-14T05:56:48;3.00;;;2.03;;
15938;SDS011;8068;51.322;9.450;2023-06-14T05:59:32;1.90;;;1.80;;
15938;SDS011;8068;51.322;9.450;2023-06-14T06:02:16;8.53;;;2.40;;
15938;SDS011;8068;51.322;9.450;2023-06-14T06:05:01;12.73;;;2.20;;
15938;SDS011;8068;51.322;9.450;2023-06-14T06:07:46;4.63;;;2.83;;
15938;SDS011;8068;51.322;9.450;2023-06-14T06:10:31;4.20;;;2.40;;
15938;SDS011;8068;51.322;9.450;2023-06-14T06:13:15;8.40;;;2.80;;
15938;SDS011;8068;51.322;9.450;2023-06-14T06:16:00;2.57;;;2.43;;
15938;SDS011;8068;51.322;9.450;2023-06-14T06:18:45;2.57;;;2.33;;
15938;SDS011;8068;51.322;9.450;2023-06-14T06:21:29;3.10;;;2.73;;
15938;SDS011;8068;51.322;9.450;2023-06-14T06:24:14;6.13;;;2.60;;
15938;SDS011;8068;51.322;9.450;2023-06-14T06:26:59;8.57;;;2.73;;
15938;SDS011;8068;51.322;9.450;2023-06-14T06:29:44;4.60;;;2.67;;
15938;SDS011;8068;51.322;9.450;2023-06-14T06:32:29;3.30;;;2.70;;
15938;SDS011;8068;51.322;9.450;2023-06-14T06:35:13;3.70;;;2.63;;
15938;SDS011;8068;51.322;9.450;2023-06-14T06:37:59;2.60;;;2.50;;
15938;SDS011;8068;51.322;9.450;2023-06-14T06:40:44;3.03;;;2.73;;
15938;SDS011;8068;51.322;9.450;2023-06-14T06:43:29;2.70;;;2.47;;
15938;SDS011;8068;51.322;9.450;2023-06-14T06:46:13;2.87;;;2.70;;
15938;SDS011;8068;51.322;9.450;2023-06-14T06:48:58;6.50;;;2.97;;
15938;SDS011;8068;51.322;9.450;2023-06-14T06:51:42;3.20;;;2.50;;
15938;SDS011;8068;51.322;9.450;2023-06-14T06:54:27;2.90;;;2.70;;
15938;SDS011;8068;51.322;9.450;2023-06-14T06:57:12;9.63;;;3.07;;
15938;SDS011;8068;51.322;9.450;2023-06-14T06:59:57;11.80;;;2.90;;
15938;SDS011;8068;51.322;9.450;2023-06-14T07:02:41;5.97;;;3.00;;
15938;SDS011;8068;51.322;9.450;2023-06-14T07:05:26;7.50;;;3.10;;
15938;SDS011;8068;51.322;9.450;2023-06-14T07:08:10;2.90;;;2.70;;
15938;SDS011;8068;51.322;9.450;2023-06-14T07:10:55;2.93;;;2.70;;
15938;SDS011;8068;51.322;9.450;2023-06-14T07:13:39;4.17;;;3.00;;
15938;SDS011;8068;51.322;9.450;2023-06-14T07:16:24;5.77;;;3.13;;
15938;SDS011;8068;51.322;9.450;2023-06-14T07:19:10;3.67;;;3.27;;
15938;SDS011;8068;51.322;9.450;2023-06-14T07:21:54;3.50;;;3.20;;
15938;SDS011;8068;51.322;9.450;2023-06-14T07:24:39;6.50;;;3.20;;
15938;SDS011;8068;51.322;9.450;2023-06-14T07:27:24;8.60;;;3.33;;
15938;SDS011;8068;51.322;9.450;2023-06-14T07:30:09;7.67;;;3.20;;
15938;SDS011;8068;51.322;9.450;2023-06-14T07:32:54;3.83;;;2.97;;
15938;SDS011;8068;51.322;9.450;2023-06-14T07:35:39;3.30;;;3.00;;
15938;SDS011;8068;51.322;9.450;2023-06-14T07:38:26;10.43;;;2.97;;
15938;SDS011;8068;51.322;9.450;2023-06-14T07:41:11;9.23;;;3.37;;
15938;SDS011;8068;51.322;9.450;2023-06-14T07:43:55;3.97;;;3.20;;
15938;SDS011;8068;51.322;9.450;2023-06-14T07:46:40;6.73;;;3.80;;
15938;SDS011;8068;51.322;9.450;2023-06-14T07:49:24;3.67;;;3.47;;
15938;SDS011;8068;51.322;9.450;2023-06-14T07:52:10;4.20;;;3.90;;
15938;SDS011;8068;51.322;9.450;2023-06-14T07:54:55;6.70;;;3.90;;
15938;SDS011;8068;51.322;9.450;2023-06-14T07:57:40;2.97;;;2.87;;
15938;SDS011;8068;51.322;9.450;2023-06-14T08:00:25;5.57;;;3.10;;
15938;SDS011;8068;51.322;9.450;2023-06-14T08:03:09;3.80;;;3.30;;
15938;SDS011;8068;51.322;9.450;2023-06-14T08:05:54;3.20;;;3.00;;
15938;SDS011;8068;51.322;9.450;2023-06-14T08:08:38;3.33;;;2.73;;
15938;SDS011;8068;51.322;9.450;2023-06-14T08:11:23;3.40;;;3.20;;
15938;SDS011;8068;51.322;9.450;2023-06-14T08:14:08;3.23;;;2.70;;
15938;SDS011;8068;51.322;9.450;2023-06-14T08:16:53;2.83;;;2.63;;
15938;SDS011;8068;51.322;9.450;2023-06-14T08:19:37;5.83;;;2.83;;
15938;SDS011;8068;51.322;9.450;2023-06-14T08:22:22;3.50;;;2.87;;
15938;SDS011;8068;51.322;9.450;2023-06-14T08:25:08;3.53;;;3.33;;
15938;SDS011;8068;51.322;9.450;2023-06-14T08:27:53;8.80;;;3.27;;
15938;SDS011;8068;51.322;9.450;2023-06-14T08:30:38;8.03;;;3.27;;
15938;SDS011;8068;51.322;9.450;2023-06-14T08:33:22;3.10;;;2.80;;
15938;SDS011;8068;51.322;9.450;2023-06-14T08:36:06;3.23;;;3.03;;
15938;SDS011;8068;51.322;9.450;2023-06-14T08:38:51;3.43;;;3.23;;
15938;SDS011;8068;51.322;9.450;2023-06-14T08:41:36;4.70;;;3.23;;
15938;SDS011;8068;51.322;9.450;2023-06-14T08:44:20;3.57;;;3.20;;
15938;SDS011;8068;51.322;9.450;2023-06-14T08:47:05;3.70;;;3.23;;
15938;SDS011;8068;51.322;9.450;2023-06-14T08:49:50;6.60;;;3.30;;
15938;SDS011;8068;51.322;9.450;2023-06-14T08:52:37;4.03;;;3.10;;
15938;SDS011;8068;51.322;9.450;2023-06-14T08:55:30;3.73;;;2.60;;
15938;SDS011;8068;51.322;9.450;2023-06-14T08:58:18;3.30;;;2.90;;
15938;SDS011;8068;51.322;9.450;2023-06-14T09:01:03;4.80;;;2.60;;
15938;SDS011;8068;51.322;9.450;2023-06-14T09:03:49;3.07;;;2.83;;
15938;SDS011;8068;51.322;9.450;2023-06-14T09:06:34;3.10;;;2.90;;
15938;SDS011;8068;51.322;9.450;2023-06-14T09:09:21;5.67;;;3.30;;
15938;SDS011;8068;51.322;9.450;2023-06-14T09:12:10;3.10;;;2.90;;
15938;SDS011;8068;51.322;9.450;2023-06-14T09:14:56;3.30;;;3.10;;
15938;SDS011;8068;51.322;9.450;2023-06-14T09:17:41;8.93;;;3.03;;
15938;SDS011;8068;51.322;9.450;2023-06-14T09:20:25;12.00;;;2.83;;
15938;SDS011;8068;51.322;9.450;2023-06-14T09:23:10;2.50;;;2.30;;
15938;SDS011;8068;51.322;9.450;2023-06-14T09:25:55;9.40;;;2.70;;
15938;SDS011;8068;51.322;9.450;2023-06-14T09:28:43;4.70;;;3.00;;
15938;SDS011;8068;51.322;9.450;2023-06-14T09:31:29;3.20;;;2.90;;
15938;SDS011;8068;51.322;9.450;2023-06-14T09:34:16;3.17;;;2.70;;
15938;SDS011;8068;51.322;9.450;2023-06-14T09:37:02;2.43;;;2.33;;
15938;SDS011;8068;51.322;9.450;2023-06-14T09:39:50;6.00;;;3.80;;
15938;SDS011;8068;51.322;9.450;2023-06-14T09:42:34;2.93;;;2.73;;
15938;SDS011;8068;51.322;9.450;2023-06-14T09:45:21;4.53;;;3.53;;
15938;SDS011;8068;51.322;9.450;2023-06-14T09:48:07;6.30;;;2.83;;
15938;SDS011;8068;51.322;9.450;2023-06-14T09:50:52;3.43;;;3.23;;
15938;SDS011;8068;51.322;9.450;2023-06-14T09:53:39;3.70;;;3.40;;
15938;SDS011;8068;51.322;9.450;2023-06-14T09:56:26;3.30;;;3.00;;
15938;SDS011;8068;51.322;9.450;2023-06-14T09:59:13;4.77;;;3.03;;
15938;SDS011;8068;51.322;9.450;2023-06-14T10:02:03;6.87;;;2.50;;
15938;SDS011;8068;51.322;9.450;2023-06-14T10:07:59;3.50;;;3.30;;
15938;SDS011;8068;51.322;9.450;2023-06-14T10:10:49;7.83;;;2.80;;
15938;SDS011;8068;51.322;9.450;2023-06-14T10:13:33;2.80;;;2.70;;
15938;SDS011;8068;51.322;9.450;2023-06-14T10:19:26;3.10;;;2.90;;
15938;SDS011;8068;51.322;9.450;2023-06-14T10:22:23;3.43;;;2.83;;
15938;SDS011;8068;51.322;9.450;2023-06-14T10:25:25;2.50;;;2.37;;
15938;SDS011;8068;51.322;9.450;2023-06-14T10:31:09;5.77;;;2.77;;
15938;SDS011;8068;51.322;9.450;2023-06-14T10:36:42;4.17;;;2.50;;
15938;SDS011;8068;51.322;9.450;2023-06-14T10:39:27;2.80;;;2.60;;
15938;SDS011;8068;51.322;9.450;2023-06-14T10:42:13;3.77;;;2.93;;
15938;SDS011;8068;51.322;9.450;2023-06-14T10:44:58;2.93;;;2.73;;
15938;SDS011;8068;51.322;9.450;2023-06-14T10:47:46;3.50;;;3.23;;
15938;SDS011;8068;51.322;9.450;2023-06-14T10:50:33;3.40;;;2.70;;
15938;SDS011;8068;51.322;9.450;2023-06-14T10:53:22;2.73;;;2.43;;
15938;SDS011;8068;51.322;9.450;2023-06-14T10:56:08;2.90;;;2.40;;
15938;SDS011;8068;51.322;9.450;2023-06-14T10:58:53;2.70;;;2.60;;
15938;SDS011;8068;51.322;9.450;2023-06-14T11:01:41;3.60;;;2.80;;
15938;SDS011;8068;51.322;9.450;2023-06-14T11:04:39;3.70;;;2.40;;
15938;SDS011;8068;51.322;9.450;2023-06-14T11:10:47;2.63;;;2.43;;
15938;SDS011;8068;51.322;9.450;2023-06-14T11:13:32;3.07;;;2.87;;
15938;SDS011;8068;51.322;9.450;2023-06-14T11:16:17;3.67;;;2.77;;
15938;SDS011;8068;51.322;9.450;2023-06-14T11:19:05;6.30;;;2.93;;
15938;SDS011;8068;51.322;9.450;2023-06-14T11:21:50;3.93;;;2.67;;
15938;SDS011;8068;51.322;9.450;2023-06-14T11:24:34;2.60;;;2.30;;
15938;SDS011;8068;51.322;9.450;2023-06-14T11:27:20;3.40;;;2.50;;
15938;SDS011;8068;51.322;9.450;2023-06-14T11:30:06;2.67;;;2.47;;
15938;SDS011;8068;51.322;9.450;2023-06-14T11:32:53;2.90;;;2.70;;
15938;SDS011;8068;51.322;9.450;2023-06-14T11:35:42;2.23;;;2.07;;
15938;SDS011;8068;51.322;9.450;2023-06-14T11:38:27;3.73;;;2.63;;
15938;SDS011;8068;51.322;9.450;2023-06-14T11:41:11;4.43;;;2.83;;
15938;SDS011;8068;51.322;9.450;2023-06-14T11:43:56;3.40;;;3.00;;
15938;SDS011;8068;51.322;9.450;2023-06-14T11:46:42;2.90;;;2.70;;
15938;SDS011;8068;51.322;9.450;2023-06-14T11:49:26;2.60;;;2.50;;
15938;SDS011;8068;51.322;9.450;2023-06-14T11:52:11;2.20;;;2.10;;
15938;SDS011;8068;51.322;9.450;2023-06-14T11:54:56;4.20;;;2.63;;
15938;SDS011;8068;51.322;9.450;2023-06-14T11:57:42;4.00;;;2.67;;
15938;SDS011;8068;51.322;9.450;2023-06-14T12:00:27;2.60;;;2.40;;
15938;SDS011;8068;51.322;9.450;2023-06-14T12:03:12;4.50;;;2.60;;
15938;SDS011;8068;51.322;9.450;2023-06-14T12:08:52;2.50;;;2.30;;
15938;SDS011;8068;51.322;9.450;2023-06-14T12:11:40;6.60;;;2.50;;
15938;SDS011;8068;51.322;9.450;2023-06-14T12:14:28;6.73;;;2.53;;
15938;SDS011;8068;51.322;9.450;2023-06-14T12:17:16;6.80;;;2.60;;
15938;SDS011;8068;51.322;9.450;2023-06-14T12:20:08;5.93;;;2.57;;
15938;SDS011;8068;51.322;9.450;2023-06-14T12:23:02;2.60;;;2.40;;
15938;SDS011;8068;51.322;9.450;2023-06-14T12:25:47;4.30;;;2.60;;
15938;SDS011;8068;51.322;9.450;2023-06-14T12:28:33;2.60;;;2.40;;
15938;SDS011;8068;51.322;9.450;2023-06-14T12:31:17;5.70;;;2.17;;
15938;SDS011;8068;51.322;9.450;2023-06-14T12:34:03;2.80;;;2.60;;
15938;SDS011;8068;51.322;9.450;2023-06-14T12:36:47;3.10;;;2.53;;
15938;SDS011;8068;51.322;9.450;2023-06-14T12:39:32;3.40;;;2.43;;
15938;SDS011;8068;51.322;9.450;2023-06-14T12:42:17;3.00;;;2.30;;
15938;SDS011;8068;51.322;9.450;2023-06-14T12:45:01;2.73;;;2.53;;
15938;SDS011;8068;51.322;9.450;2023-06-14T12:47:47;7.30;;;2.67;;
15938;SDS011;8068;51.322;9.450;2023-06-14T12:50:31;3.53;;;2.37;;
15938;SDS011;8068;51.322;9.450;2023-06-14T12:53:16;2.60;;;2.50;;
15938;SDS011;8068;51.322;9.450;2023-06-14T12:56:01;2.27;;;2.17;;
15938;SDS011;8068;51.322;9.450;2023-06-14T12:58:45;4.17;;;2.60;;
15938;SDS011;8068;51.322;9.450;2023-06-14T13:01:30;2.23;;;2.13;;
15938;SDS011;8068;51.322;9.450;2023-06-14T13:04:14;8.37;;;2.57;;
15938;SDS011;8068;51.322;9.450;2023-06-14T13:06:59;3.83;;;2.73;;
15938;SDS011;8068;51.322;9.450;2023-06-14T13:09:44;3.73;;;2.10;;
15938;SDS011;8068;51.322;9.450;2023-06-14T13:12:28;2.57;;;2.37;;
15938;SDS011;8068;51.322;9.450;2023-06-14T13:15:12;2.03;;;1.90;;
15938;SDS011;8068;51.322;9.450;2023-06-14T13:17:57;1.93;;;1.83;;
15938;SDS011;8068;51.322;9.450;2023-06-14T13:20:42;1.93;;;1.83;;
15938;SDS011;8068;51.322;9.450;2023-06-14T13:23:26;2.43;;;2.17;;
15938;SDS011;8068;51.322;9.450;2023-06-14T13:26:10;1.90;;;1.80;;
15938;SDS011;8068;51.322;9.450;2023-06-14T13:28:56;1.97;;;1.87;;
15938;SDS011;8068;51.322;9.450;2023-06-14T13:31:41;5.47;;;1.57;;
15938;SDS011;8068;51.322;9.450;2023-06-14T13:34:25;4.80;;;1.90;;
15938;SDS011;8068;51.322;9.450;2023-06-14T13:37:10;7.07;;;2.00;;
15938;SDS011;8068;51.322;9.450;2023-06-14T13:39:54;1.70;;;1.60;;
15938;SDS011;8068;51.322;9.450;2023-06-14T13:42:39;2.40;;;2.20;;
15938;SDS011;8068;51.322;9.450;2023-06-14T13:45:24;1.67;;;1.57;;
15938;SDS011;8068;51.322;9.450;2023-06-14T13:48:09;3.33;;;1.97;;
15938;SDS011;8068;51.322;9.450;2023-06-14T13:50:53;4.60;;;2.10;;
15938;SDS011;8068;51.322;9.450;2023-06-14T13:53:38;1.80;;;1.70;;
15938;SDS011;8068;51.322;9.450;2023-06-14T13:56:23;3.53;;;1.70;;
15938;SDS011;8068;51.322;9.450;2023-06-14T13:59:08;3.83;;;1.80;;
15938;SDS011;8068;51.322;9.450;2023-06-14T14:01:53;3.10;;;1.63;;
15938;SDS011;8068;51.322;9.450;2023-06-14T14:04:39;3.07;;;1.80;;
15938;SDS011;8068;51.322;9.450;2023-06-14T14:07:24;4.43;;;1.80;;
15938;SDS011;8068;51.322;9.450;2023-06-14T14:10:09;4.70;;;1.60;;
15938;SDS011;8068;51.322;9.450;2023-06-14T14:12:54;2.30;;;1.70;;
15938;SDS011;8068;51.322;9.450;2023-06-14T14:15:39;1.80;;;1.70;;
15938;SDS011;8068;51.322;9.450;2023-06-14T14:18:23;3.83;;;1.70;;
15938;SDS011;8068;51.322;9.450;2023-06-14T14:21:08;1.83;;;1.73;;
15938;SDS011;8068;51.322;9.450;2023-06-14T14:23:53;2.00;;;1.90;;
15938;SDS011;8068;51.322;9.450;2023-06-14T14:26:38;2.70;;;2.00;;
15938;SDS011;8068;51.322;9.450;2023-06-14T14:29:22;7.17;;;1.70;;
15938;SDS011;8068;51.322;9.450;2023-06-14T14:32:11;3.63;;;1.63;;
15938;SDS011;8068;51.322;9.450;2023-06-14T14:34:58;2.03;;;1.93;;
15938;SDS011;8068;51.322;9.450;2023-06-14T14:37:43;7.60;;;2.70;;
15938;SDS011;8068;51.322;9.450;2023-06-14T14:40:27;3.50;;;1.80;;
15938;SDS011;8068;51.322;9.450;2023-06-14T14:43:12;5.27;;;2.10;;
15938;SDS011;8068;51.322;9.450;2023-06-14T14:45:56;1.90;;;1.80;;
15938;SDS011;8068;51.322;9.450;2023-06-14T14:48:41;3.10;;;2.00;;
15938;SDS011;8068;51.322;9.450;2023-06-14T14:51:26;1.80;;;1.57;;
15938;SDS011;8068;51.322;9.450;2023-06-14T14:54:10;5.10;;;2.03;;
15938;SDS011;8068;51.322;9.450;2023-06-14T14:56:55;3.83;;;1.77;;
15938;SDS011;8068;51.322;9.450;2023-06-14T14:59:40;1.70;;;1.60;;
15938;SDS011;8068;51.322;9.450;2023-06-14T15:02:24;2.80;;;1.70;;
15938;SDS011;8068;51.322;9.450;2023-06-14T15:05:09;1.70;;;1.60;;
15938;SDS011;8068;51.322;9.450;2023-06-14T15:07:53;3.30;;;1.60;;
15938;SDS011;8068;51.322;9.450;2023-06-14T15:10:39;1.90;;;1.80;;
15938;SDS011;8068;51.322;9.450;2023-06-14T15:13:25;2.90;;;1.63;;
15938;SDS011;8068;51.322;9.450;2023-06-14T15:16:10;1.70;;;1.60;;
15938;SDS011;8068;51.322;9.450;2023-06-14T15:18:54;2.00;;;1.73;;
15938;SDS011;8068;51.322;9.450;2023-06-14T15:21:39;6.70;;;1.63;;
15938;SDS011;8068;51.322;9.450;2023-06-14T15:24:23;1.70;;;1.50;;
15938;SDS011;8068;51.322;9.450;2023-06-14T15:27:25;3.00;;;1.67;;
15938;SDS011;8068;51.322;9.450;2023-06-14T15:30:10;2.93;;;1.50;;
15938;SDS011;8068;51.322;9.450;2023-06-14T15:32:55;1.80;;;1.70;;
15938;SDS011;8068;51.322;9.450;2023-06-14T15:35:39;4.13;;;1.57;;
15938;SDS011;8068;51.322;9.450;2023-06-14T15:38:25;3.60;;;1.57;;
15938;SDS011;8068;51.322;9.450;2023-06-14T15:41:10;2.47;;;1.47;;
15938;SDS011;8068;51.322;9.450;2023-06-14T15:43:55;1.90;;;1.70;;
15938;SDS011;8068;51.322;9.450;2023-06-14T15:46:39;1.50;;;1.40;;
15938;SDS011;8068;51.322;9.450;2023-06-14T15:49:24;4.57;;;2.00;;
15938;SDS011;8068;51.322;9.450;2023-06-14T15:52:08;3.20;;;2.27;;
15938;SDS011;8068;51.322;9.450;2023-06-14T15:54:52;2.00;;;1.90;;
15938;SDS011;8068;51.322;9.450;2023-06-14T15:57:37;1.60;;;1.50;;
15938;SDS011;8068;51.322;9.450;2023-06-14T16:00:22;4.20;;;1.20;;
15938;SDS011;8068;51.322;9.450;2023-06-14T16:03:06;5.50;;;1.57;;
15938;SDS011;8068;51.322;9.450;2023-06-14T16:05:51;2.70;;;1.60;;
15938;SDS011;8068;51.322;9.450;2023-06-14T16:08:35;1.30;;;1.20;;
15938;SDS011;8068;51.322;9.450;2023-06-14T16:11:25;1.70;;;1.50;;
15938;SDS011;8068;51.322;9.450;2023-06-14T16:14:10;1.53;;;1.43;;
15938;SDS011;8068;51.322;9.450;2023-06-14T16:16:54;1.50;;;1.40;;
15938;SDS011;8068;51.322;9.450;2023-06-14T16:19:39;2.60;;;2.40;;
15938;SDS011;8068;51.322;9.450;2023-06-14T16:22:23;4.00;;;1.50;;
15938;SDS011;8068;51.322;9.450;2023-06-14T16:25:08;1.73;;;1.60;;
15938;SDS011;8068;51.322;9.450;2023-06-14T16:27:53;2.27;;;1.80;;
15938;SDS011;8068;51.322;9.450;2023-06-14T16:30:37;6.50;;;1.90;;
15938;SDS011;8068;51.322;9.450;2023-06-14T16:33:22;1.77;;;1.67;;
15938;SDS011;8068;51.322;9.450;2023-06-14T16:36:06;5.67;;;1.40;;
15938;SDS011;8068;51.322;9.450;2023-06-14T16:38:51;1.83;;;1.73;;
15938;SDS011;8068;51.322;9.450;2023-06-14T16:41:35;1.93;;;1.50;;
15938;SDS011;8068;51.322;9.450;2023-06-14T16:44:20;1.70;;;1.60;;
15938;SDS011;8068;51.322;9.450;2023-06-14T16:47:04;1.73;;;1.63;;
15938;SDS011;8068;51.322;9.450;2023-06-14T16:49:50;3.97;;;1.30;;
15938;SDS011;8068;51.322;9.450;2023-06-14T16:52:35;1.60;;;1.50;;
15938;SDS011;8068;51.322;9.450;2023-06-14T16:55:19;3.20;;;1.40;;
15938;SDS011;8068;51.322;9.450;2023-06-14T16:58:04;2.07;;;1.90;;
15938;SDS011;8068;51.322;9.450;2023-06-14T17:00:48;2.47;;;1.60;;
15938;SDS011;8068;51.322;9.450;2023-06-14T17:03:33;2.80;;;1.73;;
15938;SDS011;8068;51.322;9.450;2023-06-14T17:06:18;2.53;;;1.60;;
15938;SDS011;8068;51.322;9.450;2023-06-14T17:09:05;2.33;;;2.20;;
15938;SDS011;8068;51.322;9.450;2023-06-14T17:11:50;6.13;;;1.97;;